createdAt,value
2023-04-15T04:00:50.765Z,996.29
2023-04-15T04:01:51.776Z,996.30
2023-04-15T04:02:51.809Z,996.32
2023-04-15T04:03:54.424Z,996.31
2023-04-15T04:04:51.839Z,996.30
2023-04-15T04:05:51.686Z,996.28
2023-04-15T04:06:51.706Z,996.27
2023-04-15T04:07:51.634Z,996.26
2023-04-15T04:08:51.618Z,996.25
2023-04-15T04:09:51.631Z,996.26
2023-04-15T04:10:51.615Z,996.26
2023-04-15T04:11:51.608Z,996.26
2023-04-15T04:12:51.572Z,996.25
2023-04-15T04:13:51.588Z,996.26
2023-04-15T04:14:51.559Z,996.27
2023-04-15T04:15:51.603Z,996.28
2023-04-15T04:16:51.578Z,996.29
2023-04-15T04:17:51.587Z,996.30
2023-04-15T04:18:51.514Z,996.31
2023-04-15T04:19:51.496Z,996.32
2023-04-15T04:20:51.487Z,996.33
2023-04-15T04:21:51.523Z,996.34
2023-04-15T04:22:51.461Z,996.33
2023-04-15T04:23:51.462Z,996.32
2023-04-15T04:24:51.462Z,996.33
2023-04-15T04:25:51.428Z,996.34
2023-04-15T04:26:51.470Z,996.34
2023-04-15T04:27:51.433Z,996.35
2023-04-15T04:28:52.129Z,996.37
2023-04-15T04:29:51.455Z,996.38
2023-04-15T04:30:51.387Z,996.39
2023-04-15T04:31:51.445Z,996.40
2023-04-15T04:32:51.478Z,996.40
2023-04-15T04:33:51.344Z,996.41
2023-04-15T04:34:51.340Z,996.43
2023-04-15T04:35:51.757Z,996.45
2023-04-15T04:36:51.323Z,996.46
2023-04-15T04:37:51.328Z,996.47
2023-04-15T04:38:51.297Z,996.48
2023-04-15T04:39:51.280Z,996.48
2023-04-15T04:40:51.300Z,996.49
2023-04-15T04:41:51.254Z,996.50
2023-04-15T04:42:51.234Z,996.50
2023-04-15T04:43:51.227Z,996.52
2023-04-15T04:44:51.220Z,996.54
2023-04-15T04:45:51.286Z,996.56
2023-04-15T04:46:51.195Z,996.57
2023-04-15T04:47:51.286Z,996.57
2023-04-15T04:48:51.169Z,996.58
2023-04-15T04:49:51.185Z,996.59
2023-04-15T04:50:51.168Z,996.59
2023-04-15T04:51:51.185Z,996.60
2023-04-15T04:52:51.159Z,996.61
2023-04-15T04:53:51.138Z,996.61
2023-04-15T04:54:51.116Z,996.61
2023-04-15T04:55:51.171Z,996.59
2023-04-15T04:56:51.158Z,996.60
2023-04-15T04:57:51.113Z,996.60
2023-04-15T04:58:51.107Z,996.59
2023-04-15T04:59:51.093Z,996.59
2023-04-15T05:00:51.115Z,996.59
2023-04-15T05:01:51.058Z,996.60
2023-04-15T05:02:51.135Z,996.61
2023-04-15T05:03:51.082Z,996.63
2023-04-15T05:04:51.009Z,996.65
2023-04-15T05:05:51.059Z,996.67
2023-04-15T05:06:51.004Z,996.68
2023-04-15T05:07:51.016Z,996.69
2023-04-15T05:08:50.965Z,996.70
2023-04-15T05:09:50.998Z,996.70
2023-04-15T05:10:50.947Z,996.71
2023-04-15T05:11:50.963Z,996.72
2023-04-15T05:12:50.918Z,996.73
2023-04-15T05:13:50.931Z,996.74
2023-04-15T05:14:50.940Z,996.74
2023-04-15T05:15:50.985Z,996.75
2023-04-15T05:16:50.913Z,996.74
2023-04-15T05:17:50.935Z,996.76
2023-04-15T05:18:50.840Z,996.78
2023-04-15T05:19:50.848Z,996.80
2023-04-15T05:20:50.850Z,996.81
2023-04-15T05:21:50.817Z,996.81
2023-04-15T05:22:50.813Z,996.81
2023-04-15T05:23:50.843Z,996.82
2023-04-15T05:24:50.795Z,996.82
2023-04-15T05:25:50.777Z,996.82
2023-04-15T05:26:50.777Z,996.82
2023-04-15T05:27:50.767Z,996.83
2023-04-15T05:28:50.741Z,996.83
2023-04-15T05:29:50.756Z,996.84
2023-04-15T05:30:50.764Z,996.85
2023-04-15T05:31:50.730Z,996.85
2023-04-15T05:32:50.737Z,996.86
2023-04-15T05:33:50.718Z,996.89
2023-04-15T05:34:50.682Z,996.90
2023-04-15T05:35:50.708Z,996.92
2023-04-15T05:36:50.669Z,996.93
2023-04-15T05:37:50.640Z,996.94
2023-04-15T05:38:50.663Z,996.95
2023-04-15T05:39:50.636Z,996.97
2023-04-15T05:40:50.673Z,996.98
2023-04-15T05:41:50.627Z,996.99
2023-04-15T05:42:50.632Z,996.99
2023-04-15T05:43:50.596Z,997.00
2023-04-15T05:44:50.596Z,997.01
2023-04-15T05:45:50.586Z,997.01
2023-04-15T05:46:50.574Z,997.03
2023-04-15T05:47:50.632Z,997.05
2023-04-15T05:48:50.546Z,997.06
2023-04-15T05:49:50.525Z,997.06
2023-04-15T05:50:50.522Z,997.08
2023-04-15T05:51:50.500Z,997.09
2023-04-15T05:52:50.488Z,997.10
2023-04-15T05:53:50.488Z,997.12
2023-04-15T05:54:50.508Z,997.12
2023-04-15T05:55:50.448Z,997.13
2023-04-15T05:56:50.456Z,997.13
2023-04-15T05:57:50.490Z,997.14
2023-04-15T05:58:51.904Z,997.16
2023-04-15T05:59:50.440Z,997.17
2023-04-15T06:00:50.413Z,997.18
2023-04-15T06:01:50.518Z,997.20
2023-04-15T06:02:50.543Z,997.22
2023-04-15T06:03:50.500Z,997.23
2023-04-15T06:04:50.440Z,997.24
2023-04-15T06:05:50.378Z,997.25
2023-04-15T06:06:50.371Z,997.27
2023-04-15T06:07:50.348Z,997.29
2023-04-15T06:08:50.359Z,997.30
2023-04-15T06:09:50.348Z,997.31
2023-04-15T06:10:50.337Z,997.32
2023-04-15T06:11:50.322Z,997.34
2023-04-15T06:12:50.316Z,997.34
2023-04-15T06:13:50.276Z,997.36
2023-04-15T06:14:50.292Z,997.38
2023-04-15T06:15:50.315Z,997.39
2023-04-15T06:16:50.286Z,997.41
2023-04-15T06:17:50.329Z,997.42
2023-04-15T06:18:50.268Z,997.44
2023-04-15T06:19:50.204Z,997.44
2023-04-15T06:20:50.225Z,997.45
2023-04-15T06:21:50.220Z,997.45
2023-04-15T06:22:50.205Z,997.46
2023-04-15T06:23:50.168Z,997.47
2023-04-15T06:24:50.171Z,997.47
2023-04-15T06:25:50.175Z,997.46
2023-04-15T06:26:50.153Z,997.46
2023-04-15T06:27:50.125Z,997.47
2023-04-15T06:28:50.142Z,997.47
2023-04-15T06:29:50.099Z,997.48
2023-04-15T06:30:50.108Z,997.48
2023-04-15T06:31:50.132Z,997.49
2023-04-15T06:32:50.149Z,997.50
2023-04-15T06:33:50.076Z,997.51
2023-04-15T06:34:50.076Z,997.52
2023-04-15T06:35:50.103Z,997.52
2023-04-15T06:36:50.027Z,997.53
2023-04-15T06:37:50.040Z,997.55
2023-04-15T06:38:50.007Z,997.54
2023-04-15T06:39:49.986Z,997.55
2023-04-15T06:40:50.023Z,997.56
2023-04-15T06:41:49.969Z,997.56
2023-04-15T06:42:49.960Z,997.58
2023-04-15T06:43:49.941Z,997.58
2023-04-15T06:44:49.949Z,997.57
2023-04-15T06:45:49.997Z,997.57
2023-04-15T06:46:49.915Z,997.56
2023-04-15T06:47:49.964Z,997.57
2023-04-15T06:48:49.900Z,997.57
2023-04-15T06:49:49.890Z,997.58
2023-04-15T06:50:49.913Z,997.58
2023-04-15T06:51:49.859Z,997.58
2023-04-15T06:52:49.868Z,997.59
2023-04-15T06:53:49.847Z,997.59
2023-04-15T06:54:49.888Z,997.60
2023-04-15T06:55:49.870Z,997.60
2023-04-15T06:56:49.827Z,997.61
2023-04-15T06:57:49.795Z,997.60
2023-04-15T06:58:49.796Z,997.60
2023-04-15T06:59:49.774Z,997.59
2023-04-15T07:00:49.800Z,997.58
2023-04-15T07:01:49.779Z,997.59
2023-04-15T07:02:49.759Z,997.59
2023-04-15T07:03:49.745Z,997.59
2023-04-15T07:04:49.759Z,997.60
2023-04-15T07:05:49.761Z,997.59
2023-04-15T07:06:49.730Z,997.60
2023-04-15T07:07:49.732Z,997.61
2023-04-15T07:08:49.677Z,997.58
2023-04-15T07:09:49.691Z,997.59
2023-04-15T07:10:49.681Z,997.60
2023-04-15T07:11:49.664Z,997.57
2023-04-15T07:12:49.656Z,997.59
2023-04-15T07:13:49.643Z,997.59
2023-04-15T07:14:49.656Z,997.60
2023-04-15T07:15:49.614Z,997.60
2023-04-15T07:16:49.607Z,997.58
2023-04-15T07:17:49.676Z,997.58
2023-04-15T07:18:49.567Z,997.59
2023-04-15T07:19:49.574Z,997.61
2023-04-15T07:20:49.552Z,997.59
2023-04-15T07:21:49.546Z,997.62
2023-04-15T07:22:49.532Z,997.61
2023-04-15T07:23:49.525Z,997.61
2023-04-15T07:24:49.576Z,997.61
2023-04-15T07:25:49.505Z,997.60
2023-04-15T07:26:49.526Z,997.60
2023-04-15T07:27:49.528Z,997.61
2023-04-15T07:28:49.474Z,997.62
2023-04-15T07:29:49.464Z,997.63
2023-04-15T07:30:49.481Z,997.63
2023-04-15T07:31:49.435Z,997.65
2023-04-15T07:32:49.494Z,997.64
2023-04-15T07:33:49.405Z,997.65
2023-04-15T07:34:49.411Z,997.67
2023-04-15T07:35:49.397Z,997.66
2023-04-15T07:36:49.398Z,997.66
2023-04-15T07:37:49.364Z,997.65
2023-04-15T07:38:49.355Z,997.68
2023-04-15T07:39:49.397Z,997.67
2023-04-15T07:40:49.361Z,997.69
2023-04-15T07:41:49.348Z,997.70
2023-04-15T07:42:49.446Z,997.73
2023-04-15T07:43:49.296Z,997.73
2023-04-15T07:44:49.326Z,997.73
2023-04-15T07:45:49.307Z,997.74
2023-04-15T07:46:49.284Z,997.75
2023-04-15T07:47:49.281Z,997.77
2023-04-15T07:48:49.278Z,997.77
2023-04-15T07:49:49.251Z,997.75
2023-04-15T07:50:49.242Z,997.76
2023-04-15T07:51:49.207Z,997.78
2023-04-15T07:52:49.214Z,997.76
2023-04-15T07:53:49.191Z,997.79
2023-04-15T07:54:49.227Z,997.79
2023-04-15T07:55:49.200Z,997.80
2023-04-15T07:56:49.161Z,997.81
2023-04-15T07:57:49.154Z,997.80
2023-04-15T07:58:49.134Z,997.81
2023-04-15T07:59:49.153Z,997.78
2023-04-15T08:00:49.126Z,997.78
2023-04-15T08:01:49.187Z,997.80
2023-04-15T08:02:49.448Z,997.82
2023-04-15T08:03:49.235Z,997.81
2023-04-15T08:04:49.193Z,997.82
2023-04-15T08:05:49.126Z,997.80
2023-04-15T08:06:49.058Z,997.83
2023-04-15T08:07:49.057Z,997.83
2023-04-15T08:08:49.034Z,997.82
2023-04-15T08:09:49.064Z,997.86
2023-04-15T08:10:50.750Z,997.83
2023-04-15T08:11:49.061Z,997.86
2023-04-15T08:12:48.990Z,997.86
2023-04-15T08:13:48.975Z,997.89
2023-04-15T08:14:49.000Z,997.89
2023-04-15T08:15:49.058Z,997.90
2023-04-15T08:16:48.976Z,997.90
2023-04-15T08:17:48.988Z,997.92
2023-04-15T08:18:48.926Z,997.90
2023-04-15T08:19:48.959Z,997.92
2023-04-15T08:20:48.899Z,997.92
2023-04-15T08:21:48.920Z,997.88
2023-04-15T08:22:48.889Z,997.91
2023-04-15T08:23:48.885Z,997.90
2023-04-15T08:24:48.858Z,997.91
2023-04-15T08:25:48.862Z,997.89
2023-04-15T08:26:48.844Z,997.89
2023-04-15T08:27:48.825Z,997.88
2023-04-15T08:28:48.807Z,997.88
2023-04-15T08:29:48.819Z,997.87
2023-04-15T08:30:48.861Z,997.91
2023-04-15T08:31:48.829Z,997.89
2023-04-15T08:32:48.803Z,997.90
2023-04-15T08:33:48.768Z,997.93
2023-04-15T08:34:48.784Z,997.95
2023-04-15T08:35:48.775Z,997.95
2023-04-15T08:36:48.724Z,997.96
2023-04-15T08:37:48.749Z,997.98
2023-04-15T08:38:48.702Z,997.97
2023-04-15T08:39:48.720Z,997.97
2023-04-15T08:40:48.712Z,997.98
2023-04-15T08:41:48.678Z,998.00
2023-04-15T08:42:48.673Z,998.00
2023-04-15T08:43:48.654Z,998.00
2023-04-15T08:44:48.659Z,998.00
2023-04-15T08:45:48.669Z,998.00
2023-04-15T08:46:48.656Z,998.05
2023-04-15T08:47:48.639Z,998.03
2023-04-15T08:48:48.607Z,998.02
2023-04-15T08:49:48.602Z,998.09
2023-04-15T08:50:48.613Z,998.04
2023-04-15T08:51:48.581Z,998.05
2023-04-15T08:52:48.567Z,998.05
2023-04-15T08:53:48.548Z,998.03
2023-04-15T08:54:48.543Z,998.08
2023-04-15T08:55:48.773Z,998.09
2023-04-15T08:56:48.543Z,998.06
2023-04-15T08:57:48.489Z,998.07
2023-04-15T08:58:48.527Z,998.10
2023-04-15T08:59:48.496Z,998.09
2023-04-15T09:00:48.529Z,998.09
2023-04-15T09:01:48.476Z,998.07
2023-04-15T09:02:48.571Z,998.06
2023-04-15T09:03:48.850Z,998.07
2023-04-15T09:04:55.017Z,998.10
2023-04-15T09:05:48.443Z,998.11
2023-04-15T09:06:48.426Z,998.11
2023-04-15T09:07:48.423Z,998.13
2023-04-15T09:08:48.400Z,998.15
2023-04-15T09:09:48.418Z,998.13
2023-04-15T09:10:48.389Z,998.15
2023-04-15T09:11:48.380Z,998.15
2023-04-15T09:12:48.366Z,998.15
2023-04-15T09:13:48.350Z,998.16
2023-04-15T09:14:48.342Z,998.17
2023-04-15T09:15:48.341Z,998.18
2023-04-15T09:16:50.368Z,998.17
2023-04-15T09:17:48.327Z,998.17
2023-04-15T09:18:48.299Z,998.16
2023-04-15T09:19:48.286Z,998.18
2023-04-15T09:20:48.294Z,998.21
2023-04-15T09:21:48.259Z,998.18
2023-04-15T09:22:48.279Z,998.18
2023-04-15T09:23:48.251Z,998.20
2023-04-15T09:24:48.241Z,998.21
2023-04-15T09:25:48.253Z,998.23
2023-04-15T09:26:48.212Z,998.25
2023-04-15T09:27:48.192Z,998.25
2023-04-15T09:28:48.195Z,998.26
2023-04-15T09:29:48.178Z,998.28
2023-04-15T09:30:49.810Z,998.29
2023-04-15T09:31:48.191Z,998.32
2023-04-15T09:32:48.170Z,998.31
2023-04-15T09:33:48.128Z,998.36
2023-04-15T09:34:48.148Z,998.37
2023-04-15T09:35:48.158Z,998.37
2023-04-15T09:36:49.799Z,998.37
2023-04-15T09:37:48.083Z,998.41
2023-04-15T09:38:48.089Z,998.45
2023-04-15T09:39:48.060Z,998.42
2023-04-15T09:40:48.073Z,998.45
2023-04-15T09:41:48.041Z,998.46
2023-04-15T09:42:48.697Z,998.47
2023-04-15T09:43:48.023Z,998.49
2023-04-15T09:44:48.006Z,998.48
2023-04-15T09:45:48.066Z,998.50
2023-04-15T09:46:47.984Z,998.49
2023-04-15T09:47:48.041Z,998.49
2023-04-15T09:48:47.963Z,998.50
2023-04-15T09:49:48.008Z,998.50
2023-04-15T09:50:47.955Z,998.50
2023-04-15T09:51:57.973Z,998.49
2023-04-15T09:52:47.921Z,998.48
2023-04-15T09:53:47.924Z,998.48
2023-04-15T09:54:47.904Z,998.48
2023-04-15T09:55:47.942Z,998.49
2023-04-15T09:56:47.877Z,998.49
2023-04-15T09:57:47.875Z,998.49
2023-04-15T09:58:47.858Z,998.52
2023-04-15T09:59:47.875Z,998.52
2023-04-15T10:00:47.864Z,998.52
2023-04-15T10:01:47.983Z,998.54
2023-04-15T10:02:47.961Z,998.57
2023-04-15T10:03:47.915Z,998.58
2023-04-15T10:04:47.790Z,998.58
2023-04-15T10:05:47.849Z,998.59
2023-04-15T10:06:47.771Z,998.60
2023-04-15T10:07:47.766Z,998.63
2023-04-15T10:08:47.793Z,998.59
2023-04-15T10:09:47.739Z,998.62
2023-04-15T10:10:47.739Z,998.61
2023-04-15T10:11:47.727Z,998.64
2023-04-15T10:12:47.703Z,998.63
2023-04-15T10:13:47.707Z,998.64
2023-04-15T10:14:47.679Z,998.65
2023-04-15T10:15:47.720Z,998.64
2023-04-15T10:16:47.663Z,998.63
2023-04-15T10:17:47.707Z,998.64
2023-04-15T10:18:47.672Z,998.64
2023-04-15T10:19:47.639Z,998.64
2023-04-15T10:20:47.640Z,998.64
2023-04-15T10:21:47.624Z,998.64
2023-04-15T10:22:47.606Z,998.63
2023-04-15T10:23:47.595Z,998.62
2023-04-15T10:24:47.583Z,998.62
2023-04-15T10:25:47.599Z,998.61
2023-04-15T10:26:47.568Z,998.61
2023-04-15T10:27:47.558Z,998.62
2023-04-15T10:28:47.543Z,998.64
2023-04-15T10:29:47.539Z,998.63
2023-04-15T10:30:47.534Z,998.65
2023-04-15T10:31:47.565Z,998.63
2023-04-15T10:32:47.507Z,998.65
2023-04-15T10:33:47.509Z,998.63
2023-04-15T10:34:47.476Z,998.65
2023-04-15T10:35:47.501Z,998.69
2023-04-15T10:36:47.468Z,998.67
2023-04-15T10:37:47.463Z,998.66
2023-04-15T10:38:47.461Z,998.66
2023-04-15T10:39:47.459Z,998.65
2023-04-15T10:40:47.426Z,998.67
2023-04-15T10:41:47.410Z,998.67
2023-04-15T10:42:47.390Z,998.69
2023-04-15T10:43:47.390Z,998.69
2023-04-15T10:44:47.370Z,998.68
2023-04-15T10:45:47.429Z,998.70
2023-04-15T10:46:47.386Z,998.73
2023-04-15T10:47:47.363Z,998.73
2023-04-15T10:48:47.314Z,998.74
2023-04-15T10:49:47.348Z,998.75
2023-04-15T10:50:47.301Z,998.78
2023-04-15T10:51:47.315Z,998.78
2023-04-15T10:52:47.275Z,998.79
2023-04-15T10:53:47.268Z,998.78
2023-04-15T10:54:47.258Z,998.82
2023-04-15T10:55:47.303Z,998.81
2023-04-15T10:56:47.257Z,998.83
2023-04-15T10:57:47.233Z,998.80
2023-04-15T10:58:47.211Z,998.80
2023-04-15T10:59:47.212Z,998.80
2023-04-15T11:00:47.217Z,998.81
2023-04-15T11:01:47.271Z,998.82
2023-04-15T11:02:47.296Z,998.81
2023-04-15T11:03:47.386Z,998.86
2023-04-15T11:04:47.237Z,998.88
2023-04-15T11:05:47.156Z,998.89
2023-04-15T11:06:47.129Z,998.90
2023-04-15T11:07:47.136Z,998.90
2023-04-15T11:08:47.114Z,998.92
2023-04-15T11:09:47.102Z,998.94
2023-04-15T11:10:47.138Z,998.97
2023-04-15T11:11:47.087Z,998.97
2023-04-15T11:12:47.058Z,998.99
2023-04-15T11:13:47.064Z,998.97
2023-04-15T11:14:47.068Z,998.96
2023-04-15T11:15:47.075Z,998.97
2023-04-15T11:16:47.073Z,999.01
2023-04-15T11:17:47.021Z,998.96
2023-04-15T11:18:47.004Z,999.00
2023-04-15T11:19:46.990Z,998.97
2023-04-15T11:20:46.997Z,998.95
2023-04-15T11:21:46.990Z,998.99
2023-04-15T11:22:46.956Z,999.00
2023-04-15T11:23:47.123Z,999.01
2023-04-15T11:24:46.973Z,999.00
2023-04-15T11:25:47.020Z,999.01
2023-04-15T11:26:46.907Z,998.99
2023-04-15T11:27:46.906Z,998.99
2023-04-15T11:28:46.892Z,999.01
2023-04-15T11:29:46.887Z,999.02
2023-04-15T11:30:46.905Z,999.02
2023-04-15T11:31:46.898Z,999.05
2023-04-15T11:32:46.860Z,999.04
2023-04-15T11:33:46.856Z,999.07
2023-04-15T11:34:46.845Z,999.08
2023-04-15T11:35:46.814Z,999.08
2023-04-15T11:36:46.810Z,999.07
2023-04-15T11:37:46.810Z,999.08
2023-04-15T11:38:46.805Z,999.08
2023-04-15T11:39:46.799Z,999.07
2023-04-15T11:40:47.366Z,999.11
2023-04-15T11:41:46.764Z,999.13
2023-04-15T11:42:49.919Z,999.13
2023-04-15T11:43:46.740Z,999.12
2023-04-15T11:44:46.785Z,999.13
2023-04-15T11:45:46.737Z,999.14
2023-04-15T11:46:46.732Z,999.16
2023-04-15T11:47:46.841Z,999.16
2023-04-15T11:48:46.738Z,999.18
2023-04-15T11:49:46.680Z,999.15
2023-04-15T11:50:46.657Z,999.17
2023-04-15T11:51:46.661Z,999.18
2023-04-15T11:52:46.646Z,999.18
2023-04-15T11:53:46.663Z,999.20
2023-04-15T11:54:46.692Z,999.19
2023-04-15T11:55:46.644Z,999.21
2023-04-15T11:56:46.593Z,999.20
2023-04-15T11:57:46.611Z,999.21
2023-04-15T11:58:46.709Z,999.22
2023-04-15T11:59:46.632Z,999.22
2023-04-15T12:00:46.549Z,999.24
2023-04-15T12:01:46.662Z,999.26
2023-04-15T12:02:46.729Z,999.30
2023-04-15T12:03:46.769Z,999.34
2023-04-15T12:04:46.627Z,999.34
2023-04-15T12:05:46.509Z,999.37
2023-04-15T12:06:46.488Z,999.38
2023-04-15T12:07:46.498Z,999.40
2023-04-15T12:08:46.467Z,999.43
2023-04-15T12:09:46.543Z,999.42
2023-04-15T12:10:46.456Z,999.46
2023-04-15T12:11:46.435Z,999.44
2023-04-15T12:12:46.423Z,999.47
2023-04-15T12:13:46.416Z,999.47
2023-04-15T12:14:46.412Z,999.50
2023-04-15T12:15:46.434Z,999.51
2023-04-15T12:16:49.748Z,999.50
2023-04-15T12:17:51.444Z,999.52
2023-04-15T12:18:46.364Z,999.52
2023-04-15T12:19:46.375Z,999.56
2023-04-15T12:20:46.359Z,999.55
2023-04-15T12:21:46.340Z,999.59
2023-04-15T12:22:46.340Z,999.62
2023-04-15T12:23:46.305Z,999.60
2023-04-15T12:24:46.340Z,999.63
2023-04-15T12:25:46.288Z,999.63
2023-04-15T12:26:46.268Z,999.64
2023-04-15T12:27:46.269Z,999.62
2023-04-15T12:28:46.261Z,999.65
2023-04-15T12:29:46.264Z,999.63
2023-04-15T12:30:46.226Z,999.61
2023-04-15T12:31:46.276Z,999.62
2023-04-15T12:32:46.248Z,999.66
2023-04-15T12:33:46.194Z,999.64
2023-04-15T12:34:46.202Z,999.67
2023-04-15T12:35:46.186Z,999.67
2023-04-15T12:36:46.175Z,999.66
2023-04-15T12:37:46.158Z,999.67
2023-04-15T12:38:46.141Z,999.68
2023-04-15T12:39:46.164Z,999.70
2023-04-15T12:40:46.128Z,999.71
2023-04-15T12:41:46.123Z,999.73
2023-04-15T12:42:46.107Z,999.76
2023-04-15T12:43:46.097Z,999.76
2023-04-15T12:44:46.112Z,999.80
2023-04-15T12:45:46.074Z,999.79
2023-04-15T12:46:46.107Z,999.81
2023-04-15T12:47:46.082Z,999.82
2023-04-15T12:48:46.041Z,999.84
2023-04-15T12:49:46.072Z,999.85
2023-04-15T12:50:46.024Z,999.85
2023-04-15T12:51:46.000Z,999.86
2023-04-15T12:52:45.992Z,999.86
2023-04-15T12:53:45.990Z,999.83
2023-04-15T12:54:46.309Z,999.89
2023-04-15T12:55:45.975Z,999.90
2023-04-15T12:56:45.955Z,999.87
2023-04-15T12:57:45.976Z,999.87
2023-04-15T12:58:45.926Z,999.88
2023-04-15T12:59:45.940Z,999.90
2023-04-15T13:00:45.907Z,999.89
2023-04-15T13:01:45.936Z,999.90
2023-04-15T13:02:46.030Z,999.92
2023-04-15T13:03:46.028Z,999.92
2023-04-15T13:04:45.884Z,999.92
2023-04-15T13:05:45.894Z,999.91
2023-04-15T13:06:45.848Z,999.92
2023-04-15T13:07:45.850Z,999.91
2023-04-15T13:08:57.327Z,999.95
2023-04-15T13:09:45.840Z,999.96
2023-04-15T13:10:45.813Z,999.97
2023-04-15T13:11:45.800Z,999.99
2023-04-15T13:12:45.775Z,999.97
2023-04-15T13:13:45.774Z,999.98
2023-04-15T13:14:45.790Z,999.98
2023-04-15T13:15:45.896Z,1000.01
2023-04-15T13:16:45.729Z,1000.02
2023-04-15T13:17:45.790Z,1000.00
2023-04-15T13:18:45.718Z,1000.00
2023-04-15T13:19:45.746Z,1000.00
2023-04-15T13:20:45.700Z,1000.03
2023-04-15T13:21:45.700Z,1000.00
2023-04-15T13:22:45.678Z,1000.02
2023-04-15T13:23:45.666Z,1000.03
2023-04-15T13:24:45.664Z,1000.04
2023-04-15T13:25:45.647Z,1000.04
2023-04-15T13:26:45.650Z,1000.07
2023-04-15T13:27:45.619Z,1000.04
2023-04-15T13:28:45.628Z,1000.10
2023-04-15T13:29:45.621Z,1000.07
2023-04-15T13:30:45.574Z,1000.10
2023-04-15T13:31:45.619Z,1000.07
2023-04-15T13:32:45.690Z,1000.09
2023-04-15T13:33:45.541Z,1000.08
2023-04-15T13:34:45.575Z,1000.11
2023-04-15T13:35:45.551Z,1000.13
2023-04-15T13:36:45.522Z,1000.17
2023-04-15T13:37:45.526Z,1000.11
2023-04-15T13:38:45.504Z,1000.15
2023-04-15T13:39:45.487Z,1000.18
2023-04-15T13:40:45.508Z,1000.16
2023-04-15T13:41:45.472Z,1000.18
2023-04-15T13:42:45.459Z,1000.20
2023-04-15T13:43:45.448Z,1000.19
2023-04-15T13:44:45.458Z,1000.21
2023-04-15T13:45:45.440Z,1000.21
2023-04-15T13:46:45.420Z,1000.21
2023-04-15T13:47:45.472Z,1000.24
2023-04-15T13:48:45.391Z,1000.26
2023-04-15T13:49:45.432Z,1000.29
2023-04-15T13:50:45.456Z,1000.28
2023-04-15T13:51:45.379Z,1000.28
2023-04-15T13:52:45.358Z,1000.30
2023-04-15T13:53:45.330Z,1000.31
2023-04-15T13:54:45.334Z,1000.27
2023-04-15T13:55:45.342Z,1000.34
2023-04-15T13:56:45.323Z,1000.32
2023-04-15T13:57:45.298Z,1000.33
2023-04-15T13:58:45.289Z,1000.32
2023-04-15T13:59:45.302Z,1000.34
2023-04-15T14:00:45.310Z,1000.37
2023-04-15T14:01:45.341Z,1000.36
2023-04-15T14:02:45.319Z,1000.36
2023-04-15T14:03:45.369Z,1000.39
2023-04-15T14:04:45.237Z,1000.39
2023-04-15T14:05:45.211Z,1000.41
2023-04-15T14:06:45.208Z,1000.42
2023-04-15T14:07:45.296Z,1000.40
2023-04-15T14:08:45.175Z,1000.43
2023-04-15T14:09:45.192Z,1000.43
2023-04-15T14:10:45.147Z,1000.48
2023-04-15T14:11:45.159Z,1000.50
2023-04-15T14:12:45.133Z,1000.48
2023-04-15T14:13:45.123Z,1000.49
2023-04-15T14:14:45.123Z,1000.49
2023-04-15T14:15:45.092Z,1000.49
2023-04-15T14:16:45.138Z,1000.50
2023-04-15T14:17:45.111Z,1000.51
2023-04-15T14:18:45.064Z,1000.53
2023-04-15T14:19:45.069Z,1000.54
2023-04-15T14:20:45.047Z,1000.51
2023-04-15T14:21:45.031Z,1000.54
2023-04-15T14:22:45.023Z,1000.54
2023-04-15T14:23:45.024Z,1000.55
2023-04-15T14:24:45.015Z,1000.55
2023-04-15T14:25:47.480Z,1000.57
2023-04-15T14:26:44.984Z,1000.56
2023-04-15T14:27:44.962Z,1000.57
2023-04-15T14:28:45.146Z,1000.58
2023-04-15T14:29:44.953Z,1000.60
2023-04-15T14:30:45.030Z,1000.61
2023-04-15T14:31:44.927Z,1000.61
2023-04-15T14:32:45.624Z,1000.63
2023-04-15T14:33:44.903Z,1000.63
2023-04-15T14:34:44.901Z,1000.66
2023-04-15T14:35:44.892Z,1000.68
2023-04-15T14:36:44.888Z,1000.66
2023-04-15T14:37:44.846Z,1000.68
2023-04-15T14:38:45.786Z,1000.66
2023-04-15T14:39:44.848Z,1000.69
2023-04-15T14:40:44.826Z,1000.73
2023-04-15T14:41:44.835Z,1000.72
2023-04-15T14:42:44.802Z,1000.74
2023-04-15T14:43:44.827Z,1000.74
2023-04-15T14:44:44.838Z,1000.77
2023-04-15T14:45:45.544Z,1000.79
2023-04-15T14:46:44.840Z,1000.79
2023-04-15T14:47:44.899Z,1000.82
2023-04-15T14:48:44.772Z,1000.84
2023-04-15T14:49:44.717Z,1000.85
2023-04-15T14:50:44.728Z,1000.85
2023-04-15T14:51:44.708Z,1000.87
2023-04-15T14:52:44.702Z,1000.90
2023-04-15T14:53:44.735Z,1000.88
2023-04-15T14:54:44.691Z,1000.92
2023-04-15T14:55:44.686Z,1000.96
2023-04-15T14:56:44.662Z,1000.94
2023-04-15T14:57:44.650Z,1000.99
2023-04-15T14:58:44.636Z,1001.00
2023-04-15T14:59:44.631Z,1001.00
2023-04-15T15:00:44.681Z,1001.07
2023-04-15T15:01:44.664Z,1001.02
2023-04-15T15:02:44.688Z,1001.04
2023-04-15T15:03:44.659Z,1001.07
2023-04-15T15:04:44.642Z,1001.05
2023-04-15T15:05:44.791Z,1001.06
2023-04-15T15:06:44.898Z,1001.03
2023-04-15T15:07:44.543Z,1001.10
2023-04-15T15:08:44.538Z,1001.12
2023-04-15T15:09:44.541Z,1001.14
2023-04-15T15:10:48.232Z,1001.12
2023-04-15T15:11:44.548Z,1001.17
2023-04-15T15:12:44.490Z,1001.18
2023-04-15T15:13:44.464Z,1001.18
2023-04-15T15:14:44.478Z,1001.18
2023-04-15T15:15:44.489Z,1001.19
2023-04-15T15:16:44.466Z,1001.20
2023-04-15T15:17:44.469Z,1001.22
2023-04-15T15:18:44.452Z,1001.25
2023-04-15T15:19:44.412Z,1001.26
2023-04-15T15:20:44.418Z,1001.25
2023-04-15T15:21:44.422Z,1001.28
2023-04-15T15:22:44.373Z,1001.27
2023-04-15T15:23:44.394Z,1001.32
2023-04-15T15:24:44.364Z,1001.34
2023-04-15T15:25:44.344Z,1001.33
2023-04-15T15:26:44.339Z,1001.33
2023-04-15T15:27:44.316Z,1001.33
2023-04-15T15:28:44.345Z,1001.36
2023-04-15T15:29:44.301Z,1001.39
2023-04-15T15:30:44.317Z,1001.39
2023-04-15T15:31:44.323Z,1001.40
2023-04-15T15:32:44.336Z,1001.40
2023-04-15T15:33:44.377Z,1001.41
2023-04-15T15:34:44.267Z,1001.44
2023-04-15T15:35:44.248Z,1001.45
2023-04-15T15:36:44.281Z,1001.45
2023-04-15T15:37:44.236Z,1001.48
2023-04-15T15:38:44.243Z,1001.49
2023-04-15T15:39:44.191Z,1001.51
2023-04-15T15:40:44.211Z,1001.52
2023-04-15T15:41:44.178Z,1001.51
2023-04-15T15:42:44.190Z,1001.52
2023-04-15T15:43:44.176Z,1001.50
2023-04-15T15:44:44.138Z,1001.56
2023-04-15T15:45:44.143Z,1001.56
2023-04-15T15:46:44.182Z,1001.55
2023-04-15T15:47:44.191Z,1001.58
2023-04-15T15:48:44.104Z,1001.59
2023-04-15T15:49:44.095Z,1001.60
2023-04-15T15:50:44.075Z,1001.61
2023-04-15T15:51:44.089Z,1001.65
2023-04-15T15:52:44.074Z,1001.67
2023-04-15T15:53:44.047Z,1001.66
2023-04-15T15:54:44.031Z,1001.70
2023-04-15T15:55:44.016Z,1001.70
2023-04-15T15:56:44.062Z,1001.68
2023-04-15T15:57:44.009Z,1001.71
2023-04-15T15:58:44.008Z,1001.75
2023-04-15T15:59:43.974Z,1001.71
2023-04-15T16:00:44.010Z,1001.74
2023-04-15T16:01:43.999Z,1001.73
2023-04-15T16:03:44.092Z,1001.76
2023-04-15T16:04:43.954Z,1001.79
2023-04-15T16:05:43.927Z,1001.78
2023-04-15T16:06:43.941Z,1001.80
2023-04-15T16:07:43.965Z,1001.84
2023-04-15T16:08:43.877Z,1001.82
2023-04-15T16:09:43.870Z,1001.85
2023-04-15T16:10:43.857Z,1001.86
2023-04-15T16:11:43.848Z,1001.87
2023-04-15T16:12:43.859Z,1001.88
2023-04-15T16:13:43.833Z,1001.90
2023-04-15T16:14:43.820Z,1001.92
2023-04-15T16:15:43.801Z,1001.94
2023-04-15T16:16:43.889Z,1001.96
2023-04-15T16:17:43.818Z,1001.96
2023-04-15T16:18:43.778Z,1001.97
2023-04-15T16:19:59.861Z,1001.96
2023-04-15T16:20:43.765Z,1002.01
2023-04-15T16:21:43.754Z,1002.01
2023-04-15T16:22:43.764Z,1002.00
2023-04-15T16:23:43.749Z,1002.01